LPPTLJLJ

Guest
Details From LPPT - Lisboa
To LJLJ - LJUBLJANA
Flight Number -
Tags decoded
Created
Modified
Stats Distance 1,131 nm / 2,094 km
Max Altitude 0 ft / 0 m
Waypoints 2
Social Downloads 0
Likes 0
Share VATSIM

Download

Looking for another format? Having issues loading an existing format? Contact us
Advertisement - Login to hide

Notes

Requested: LPPT LJLJ

Route

LPPT LJLJ

ID Type Via Altitude Latitude Longitude Leg Dist Tot Dist Heading (true) Name
O LPPT APT - 0 ft / 0 m 38.77856˚ -9.13515˚ - 0 nm - Lisboa
O LJLJ APT - 0 ft / 0 m 46.22368˚ 14.45761˚ 1130 nm 1130 nm 59° / 75° LJUBLJANA

Altitude Profile

Advertisement - Login to hide

Weather


0- 5 10 15 20 25 30 35+ Temperature / ° C

Clouds and Precipitation
Forecast for 2018-05-25 00:00 UTC. Updated 4 hours ago

Ground ~20,000 ft ~40,000 ft Winds

LPPT

Details ICAO LPPT (LIS)
Name Lisboa
Region Portugal
Timezone Europe/Lisbon (UTC+1.0)
Stats Elevation 374 ft / 114 m (AMSL)
Location 38.778559° -9.135146°
Runways 2
Magnetic Variation 2.309° W

METAR

LPPT 250300Z 00000KT 9000 BKN006 13/12 Q1012

Decode

TAF

TAF AMD LPPT 250330Z 2503/2606 VRB03KT 9999 SCT008 TEMPO 2504/2508 6000 BKN005 BECMG 2508/2510 18005KT SCT015 BECMG 2512/2514 23007KT SCT035 PROB30 TEMPO 2512/2518 5000 TSRA SCT025CB BECMG 2518/2521 35007KT FEW018 BECMG 2523/2601 VRB03KT FEW012

Decode

Departure Runways

ID Width Length Bearing (true) Bearing (mag) Surface Threshold Offset Overrun Length
03 148 ft / 45 m 12,518 ft / 3,815 m 22.70° 25.01° Asphalt 296 ft / 90 m 0 ft / 0 m
17 148 ft / 45 m 7,922 ft / 2,415 m 168.38° 170.69° Asphalt 0 ft / 0 m 0 ft / 0 m
21 148 ft / 45 m 12,518 ft / 3,815 m 202.72° 205.03° Asphalt 1,969 ft / 600 m 0 ft / 0 m
35 148 ft / 45 m 7,922 ft / 2,415 m 348.38° 350.69° Asphalt 492 ft / 150 m 0 ft / 0 m

LJLJ

Details ICAO LJLJ (LJU)
Name LJUBLJANA
Region Slovenia
Timezone Europe/Ljubljana (UTC+2.0)
Stats Elevation 1,273 ft / 388 m (AMSL)
Location 46.223685° 14.457608°
Runways 1
Magnetic Variation 3.712° E

METAR

LJLJ 250300Z 28004KT 230V300 9999 FEW047 SCT120 11/11 Q1017 NOSIG

Decode

TAF

TAF LJLJ 250200Z 2503/2603 28003KT 9999 FEW050 SCT130 TEMPO 2503/2521 SHRA SCT035TCU BKN050 BECMG 2508/2510 12005KT PROB40 TEMPO 2509/2518 VRB10G20KT 5000 TSRA SCT030CB BKN050 BECMG 2519/2522 29003KT

Decode

Destination Runways

ID Width Length Bearing (true) Bearing (mag) Surface Threshold Offset Overrun Length
13 148 ft / 45 m 10,811 ft / 3,295 m 126.47° 122.76° Asphalt 0 ft / 0 m 0 ft / 0 m
31 148 ft / 45 m 10,811 ft / 3,295 m 306.49° 302.78° Asphalt 0 ft / 0 m 0 ft / 0 m

Approach Navaids

Runway Type Ident Frequency Range Bearing (true) Bearing (mag) Slope Elevation
31 Localiser LJB 110.50 MHz 18 nm / 33 km 306.46° 302.75° - 1,282 ft / 391 m (AMSL)
31 Glidescope LJB 110.50 MHz 10 nm / 19 km 306.48° 302.77° 3.00° 1,198 ft / 365 m (AMSL)
31 DME LJB 110.50 MHz 18 nm / 33 km - - - 1,198 ft / 365 m (AMSL)

Popular Alternatives